Weather at South Coast Heliport

Public forecast

Using degrees Celsius for public forecast. Weather courtesy of forecast.io.

Closest aviation weather report (METAR) to South Coast Heliport

Closest report is Adelaide International Airport, 27.2 nm (50.4 km) NW. Retrieved 2021/06/22 16:00 UTC (32 minutes ago):

YPAD 221600Z 03010KT 9999 -RA NSC 13/09 Q1013

Closest aviation forecast (TAF) to South Coast Heliport

Forecast is more than 6 hours old.

Closest forecast is Adelaide International Airport, 27.2 nm (50.4 km) NW. Retrieved 2021/06/22 09:36 UTC (7 hours ago):

TAF YPAD 220818Z 2209/2312 02014KT 9999 -RA SCT050 FM221300 02014KT 9999 -RA SCT020 BKN030 FM221900 36014KT 9999 -RA SCT015 BKN025 FM230300 33016G26KT 9999 -SHRA SCT025 FM230900 35014KT 9999 -SHRA SCT035 TEMPO 2213/2220 01020G30KT 4000 RA SCT012 BKN025 TEMPO 2220/2302 3000 RA BKN012